Time;durP1;ratioP1;P1;durP2;ratioP2;P2;SDS_P1;SDS_P2;PMS_P1;PMS_P2;Temp;Humidity;BMP_temperature;BMP_pressure;BME280_temperature;BME280_humidity;BME280_pressure;Samples;Min_cycle;Max_cycle;Signal;HPM_P1;HPM_P2
2023/05/23 00:01:36;;;;;;;0.30;0.30;;;;;;;16.18;46.19;100569.56;5063818;28;20060;-62
2023/05/23 00:04:05;;;;;;;0.40;0.40;;;;;;;16.18;46.25;100560.84;5063739;28;20017;-61
2023/05/23 00:06:31;;;;;;;0.22;0.22;;;;;;;16.21;46.37;100555.53;5063779;28;20024;-62
2023/05/23 00:08:57;;;;;;;0.20;0.20;;;;;;;16.19;46.56;100559.94;5063489;28;20033;-60
2023/05/23 00:11:25;;;;;;;0.30;0.30;;;;;;;16.19;46.53;100562.56;5063597;28;20024;-61
2023/05/23 00:13:52;;;;;;;0.40;0.40;;;;;;;16.16;46.43;100555.66;5063792;28;20023;-61
2023/05/23 00:16:17;;;;;;;0.20;0.20;;;;;;;16.16;46.54;100560.91;5063441;28;20025;-61
2023/05/23 00:18:44;;;;;;;0.30;0.30;;;;;;;16.10;46.62;100548.00;5063642;28;20025;-59
2023/05/23 00:21:10;;;;;;;0.30;0.30;;;;;;;16.17;46.30;100549.50;5063703;28;20021;-60
2023/05/23 00:23:37;;;;;;;0.28;0.28;;;;;;;16.15;46.63;100555.72;5063588;28;20079;-61
2023/05/23 00:26:02;;;;;;;0.25;0.25;;;;;;;16.07;46.68;100546.31;5063414;28;20044;-60
2023/05/23 00:28:28;;;;;;;0.30;0.30;;;;;;;16.12;46.58;100558.41;5045573;28;20048;-60
2023/05/23 00:30:53;;;;;;;0.20;0.20;;;;;;;16.07;46.70;100548.91;5045142;28;20049;-61
2023/05/23 00:33:20;;;;;;;0.30;0.30;;;;;;;16.06;46.52;100548.97;5063712;28;20039;-61
2023/05/23 00:35:46;;;;;;;0.30;0.30;;;;;;;16.09;46.71;100543.63;5063305;28;20021;-60
2023/05/23 00:38:13;;;;;;;0.20;0.20;;;;;;;16.06;46.67;100552.44;5063286;28;20044;-61
2023/05/23 00:40:38;;;;;;;1.85;1.75;;;;;;;15.98;46.53;100536.09;5063263;28;20445;-61
2023/05/23 00:43:04;;;;;;;0.30;0.30;;;;;;;16.03;46.58;100544.69;5063356;28;20047;-60
2023/05/23 00:45:30;;;;;;;0.20;0.20;;;;;;;16.09;46.34;100548.88;5063353;28;20029;-60
2023/05/23 00:47:56;;;;;;;0.20;0.20;;;;;;;16.02;46.40;100536.88;5063069;28;20024;-60
2023/05/23 00:50:22;;;;;;;0.30;0.30;;;;;;;16.02;46.21;100535.13;5063337;28;20024;-60
2023/05/23 00:52:48;;;;;;;0.25;0.25;;;;;;;15.86;46.34;100511.94;5063237;28;20017;-60
2023/05/23 00:55:14;;;;;;;0.20;0.20;;;;;;;15.98;46.37;100528.25;5063332;28;20076;-61
2023/05/23 00:57:40;;;;;;;0.20;0.20;;;;;;;15.97;45.94;100526.50;5063492;28;20123;-60
2023/05/23 01:00:10;;;;;;;0.20;0.20;;;;;;;15.94;46.05;100518.75;5063154;28;20017;-60
2023/05/23 01:02:43;;;;;;;0.30;0.30;;;;;;;15.96;45.95;100527.38;5065585;28;20040;-61
2023/05/23 01:05:16;;;;;;;0.40;0.40;;;;;;;16.03;45.41;100510.66;5067265;28;20428;-59
2023/05/23 01:07:42;;;;;;;0.20;0.20;;;;;;;15.99;45.09;100516.84;5066945;28;20076;-61
2023/05/23 01:10:08;;;;;;;0.22;0.22;;;;;;;15.90;45.39;100517.09;5066717;28;20081;-59
2023/05/23 01:12:46;;;;;;;0.30;0.30;;;;;;;15.85;45.37;100522.47;5066901;28;20100;-60
2023/05/23 01:15:16;;;;;;;0.30;0.30;;;;;;;15.70;45.12;100500.22;5066553;28;20032;-60
2023/05/23 01:17:57;;;;;;;0.20;0.20;;;;;;;15.81;45.37;100518.22;5048694;28;20028;-60
2023/05/23 01:20:35;;;;;;;0.30;0.30;;;;;;;15.76;45.22;100518.38;5066809;28;20017;-61
2023/05/23 01:23:10;;;;;;;0.50;0.40;;;;;;;15.71;45.12;100521.13;5066933;28;20052;-61
2023/05/23 01:25:36;;;;;;;0.30;0.30;;;;;;;15.68;44.94;100523.81;5066650;28;20029;-60
2023/05/23 01:28:06;;;;;;;0.20;0.20;;;;;;;15.65;44.94;100515.19;5066745;28;20086;-61
2023/05/23 01:30:37;;;;;;;0.20;0.20;;;;;;;15.64;45.00;100513.47;5066247;28;20021;-61
2023/05/23 01:33:04;;;;;;;0.20;0.20;;;;;;;15.65;44.97;100510.81;5066400;28;20021;-60
2023/05/23 01:35:30;;;;;;;0.30;0.30;;;;;;;15.65;44.87;100505.59;5066510;28;20060;-61
2023/05/23 01:37:56;;;;;;;0.20;0.20;;;;;;;15.71;44.94;100517.63;5066251;28;20025;-61
2023/05/23 01:40:25;;;;;;;0.30;0.30;;;;;;;15.64;44.77;100510.88;5066199;28;20023;-61
2023/05/23 01:42:52;;;;;;;0.30;0.30;;;;;;;15.70;44.92;100510.69;5066396;28;20108;-60
2023/05/23 01:45:18;;;;;;;0.30;0.30;;;;;;;15.64;44.91;100495.16;5066281;28;20082;-61
2023/05/23 01:47:48;;;;;;;0.20;0.20;;;;;;;15.64;44.94;100501.25;5048234;28;20500;-61
2023/05/23 01:50:14;;;;;;;0.25;0.25;;;;;;;15.63;44.84;100503.91;5066390;28;20033;-60
2023/05/23 01:52:40;;;;;;;0.30;0.30;;;;;;;15.56;44.97;100493.59;5066051;28;20051;-61
2023/05/23 01:55:10;;;;;;;0.30;0.30;;;;;;;15.56;45.17;100487.53;5065983;28;20050;-60
2023/05/23 01:57:37;;;;;;;0.30;0.30;;;;;;;15.58;45.05;100490.94;5065841;28;20024;-61
2023/05/23 02:00:06;;;;;;;0.30;0.30;;;;;;;15.56;45.04;100488.38;5065609;28;20017;-60
2023/05/23 02:02:34;;;;;;;0.20;0.20;;;;;;;15.51;45.11;100474.56;5065859;28;20035;-60
2023/05/23 02:05:00;;;;;;;1.20;1.10;;;;;;;15.46;45.49;100477.28;5066112;28;20107;-61
2023/05/23 02:07:25;;;;;;;0.22;0.22;;;;;;;15.29;45.39;100450.78;5065748;28;20111;-60
2023/05/23 02:09:50;;;;;;;0.20;0.20;;;;;;;15.41;45.42;100479.22;5065562;28;20028;-62
2023/05/23 02:12:16;;;;;;;0.30;0.30;;;;;;;15.39;45.50;100469.66;5065576;28;20017;-60
2023/05/23 02:14:41;;;;;;;0.22;0.22;;;;;;;15.32;45.61;100467.22;5064642;28;20589;-60
2023/05/23 02:17:10;;;;;;;0.38;0.38;;;;;;;15.29;45.80;100469.09;5065728;28;20104;-60
2023/05/23 02:19:36;;;;;;;0.30;0.30;;;;;;;15.24;45.94;100466.56;5065777;28;20017;-60
2023/05/23 02:22:02;;;;;;;0.40;0.40;;;;;;;15.23;45.77;100464.84;5047572;28;20017;-60
2023/05/23 02:24:27;;;;;;;0.30;0.30;;;;;;;15.15;46.07;100458.97;5065122;28;20025;-61
2023/05/23 02:26:53;;;;;;;0.30;0.30;;;;;;;15.13;46.08;100451.16;5064389;28;20021;-60
2023/05/23 02:29:18;;;;;;;0.30;0.30;;;;;;;15.13;46.06;100445.09;5064160;28;20025;-60
2023/05/23 02:31:44;;;;;;;0.30;0.30;;;;;;;15.09;46.30;100437.34;5065181;28;20024;-60
2023/05/23 02:34:09;;;;;;;0.28;0.28;;;;;;;15.10;46.41;100443.41;5065429;28;20029;-60
2023/05/23 02:36:36;;;;;;;0.32;0.32;;;;;;;15.07;46.58;100436.53;5065234;28;20100;-61
2023/05/23 02:39:04;;;;;;;0.30;0.30;;;;;;;15.04;47.02;100426.13;5065195;28;20051;-60
2023/05/23 02:41:30;;;;;;;0.60;0.60;;;;;;;14.99;47.28;100430.63;5065278;28;20024;-60
2023/05/23 02:43:55;;;;;;;0.30;0.30;;;;;;;14.93;47.57;100418.59;5065125;28;20032;-60
2023/05/23 02:46:20;;;;;;;1.23;1.15;;;;;;;14.90;47.81;100416.06;5064850;28;20177;-61
2023/05/23 02:48:46;;;;;;;0.20;0.20;;;;;;;14.83;47.78;100412.75;5064693;28;20086;-61
2023/05/23 02:51:12;;;;;;;0.30;0.30;;;;;;;14.86;48.32;100404.81;5064810;28;20028;-60
2023/05/23 02:53:38;;;;;;;0.30;0.30;;;;;;;14.80;48.46;100404.97;5064808;28;20021;-60
2023/05/23 02:56:03;;;;;;;0.30;0.30;;;;;;;14.79;48.75;100403.25;5064720;28;20021;-61
2023/05/23 02:58:29;;;;;;;0.22;0.22;;;;;;;14.76;48.93;100400.69;5064636;28;20028;-61
2023/05/23 03:00:54;;;;;;;0.30;0.30;;;;;;;14.78;49.18;100395.41;5064667;28;20139;-61
2023/05/23 03:03:20;;;;;;;0.93;0.93;;;;;;;14.73;49.42;100400.75;5064721;28;20035;-61
2023/05/23 03:05:46;;;;;;;0.30;0.30;;;;;;;14.73;49.39;100398.16;5064523;28;20396;-61
2023/05/23 03:08:11;;;;;;;0.40;0.40;;;;;;;14.67;49.60;100387.88;5064671;28;20472;-61
2023/05/23 03:10:36;;;;;;;0.77;0.77;;;;;;;14.66;49.60;100391.38;5064455;28;20025;-61
2023/05/23 03:13:02;;;;;;;0.57;0.57;;;;;;;14.68;49.46;100389.59;5064701;28;20032;-61
2023/05/23 03:15:27;;;;;;;1.10;1.10;;;;;;;14.66;49.27;100379.19;5064444;28;20055;-60
2023/05/23 03:17:52;;;;;;;0.30;0.30;;;;;;;14.77;49.25;100389.34;5064612;28;20024;-61
2023/05/23 03:20:18;;;;;;;0.30;0.30;;;;;;;14.83;49.06;100384.00;5064343;28;20097;-60
2023/05/23 03:22:44;;;;;;;0.30;0.30;;;;;;;14.83;49.20;100388.34;5064070;28;20031;-60
2023/05/23 03:25:10;;;;;;;0.30;0.30;;;;;;;14.80;49.23;100378.84;5064157;28;20070;-60
2023/05/23 03:27:35;;;;;;;0.98;0.98;;;;;;;14.78;48.96;100374.50;5063462;28;20112;-60
2023/05/23 03:30:07;;;;;;;0.30;0.30;;;;;;;14.78;48.98;100367.53;5062863;28;20021;-60
2023/05/23 03:32:32;;;;;;;0.40;0.40;;;;;;;14.78;49.04;100372.75;5064232;28;20089;-60
2023/05/23 03:34:57;;;;;;;1.58;1.48;;;;;;;14.75;49.04;100365.88;5064010;28;20081;-60
2023/05/23 03:37:23;;;;;;;0.30;0.30;;;;;;;14.75;48.92;100367.63;5064231;28;20112;-59
2023/05/23 03:39:48;;;;;;;0.30;0.30;;;;;;;14.73;48.98;100361.56;5063946;28;20017;-60
2023/05/23 03:42:13;;;;;;;0.30;0.30;;;;;;;14.75;49.12;100357.16;5063964;28;20078;-60
2023/05/23 03:44:39;;;;;;;0.30;0.30;;;;;;;14.78;48.94;100359.69;5063769;28;20040;-60
2023/05/23 03:47:04;;;;;;;0.50;0.50;;;;;;;14.69;48.89;100350.38;5063899;28;20085;-60
2023/05/23 03:49:30;;;;;;;0.95;0.95;;;;;;;14.73;49.01;100359.81;5063557;28;20305;-60
2023/05/23 03:51:55;;;;;;;0.30;0.30;;;;;;;14.72;49.03;100355.50;5063900;28;20033;-61
2023/05/23 03:54:21;;;;;;;3.95;2.05;;;;;;;14.71;49.18;100353.78;5063984;28;20025;-61
2023/05/23 03:56:46;;;;;;;0.65;0.65;;;;;;;14.61;49.53;100347.09;5063964;28;20123;-60
2023/05/23 03:59:11;;;;;;;0.30;0.30;;;;;;;14.60;49.64;100337.56;5063861;28;20017;-60
2023/05/23 04:01:38;;;;;;;0.30;0.30;;;;;;;14.60;49.79;100343.59;5063654;28;20024;-59
2023/05/23 04:04:03;;;;;;;0.30;0.30;;;;;;;14.53;49.90;100338.59;5045937;28;20598;-59
2023/05/23 04:06:30;;;;;;;0.30;0.30;;;;;;;14.53;49.94;100330.75;5063854;28;20022;-61
2023/05/23 04:08:56;;;;;;;0.30;0.30;;;;;;;14.47;49.77;100329.16;5064000;28;20396;-60
2023/05/23 04:11:21;;;;;;;0.30;0.30;;;;;;;14.51;49.73;100336.00;5045925;28;20031;-60
2023/05/23 04:13:47;;;;;;;0.38;0.38;;;;;;;14.49;49.88;100329.97;5046091;28;20085;-60
2023/05/23 04:16:12;;;;;;;0.40;0.40;;;;;;;14.51;49.79;100328.19;5063645;28;20100;-61
2023/05/23 04:18:38;;;;;;;0.30;0.30;;;;;;;14.52;49.76;100322.03;5064007;28;20029;-61
2023/05/23 04:21:04;;;;;;;0.30;0.30;;;;;;;14.57;49.68;100328.03;5063920;28;20013;-60
2023/05/23 04:23:29;;;;;;;0.30;0.30;;;;;;;14.61;49.68;100329.66;5063507;28;20475;-60
2023/05/23 04:25:56;;;;;;;0.30;0.30;;;;;;;14.68;49.65;100322.50;5063571;28;20024;-61
2023/05/23 04:28:22;;;;;;;0.30;0.30;;;;;;;14.57;49.47;100295.84;5063884;28;20025;-60
2023/05/23 04:30:48;;;;;;;0.40;0.40;;;;;;;14.77;49.27;100318.78;5063551;28;20103;-58
2023/05/23 04:33:14;;;;;;;0.40;0.40;;;;;;;14.74;49.44;100305.81;5045682;28;20361;-59
2023/05/23 04:35:39;;;;;;;0.75;0.75;;;;;;;14.82;49.14;100305.63;5045390;28;20473;-58
2023/05/23 04:38:05;;;;;;;0.30;0.30;;;;;;;14.84;49.06;100303.84;5066398;28;20021;-58
2023/05/23 04:40:31;;;;;;;0.52;0.52;;;;;;;14.92;49.00;100303.63;5067264;28;20070;-60
2023/05/23 04:42:56;;;;;;;0.30;0.30;;;;;;;14.96;48.44;100306.09;5067044;28;20341;-60
2023/05/23 04:45:22;;;;;;;0.30;0.30;;;;;;;15.03;47.90;100300.69;5066960;28;20029;-59
2023/05/23 04:47:47;;;;;;;0.30;0.30;;;;;;;15.02;47.80;100298.97;5066717;28;20021;-58
2023/05/23 04:50:17;;;;;;;0.30;0.30;;;;;;;14.98;48.04;100293.00;5067263;28;20017;-59
2023/05/23 04:52:42;;;;;;;0.30;0.30;;;;;;;14.98;47.79;100291.22;5067049;28;20043;-57
2023/05/23 04:55:08;;;;;;;0.30;0.30;;;;;;;14.97;47.90;100286.03;5067454;28;20048;-60
2023/05/23 04:57:34;;;;;;;0.22;0.22;;;;;;;15.02;47.80;100289.38;5067112;28;20025;-59
2023/05/23 05:00:00;;;;;;;0.30;0.30;;;;;;;15.03;47.84;100285.84;5066824;28;20076;-59
2023/05/23 05:02:26;;;;;;;0.30;0.30;;;;;;;15.05;47.47;100278.81;5067114;28;20076;-58
2023/05/23 05:04:52;;;;;;;0.30;0.30;;;;;;;15.07;47.38;100284.88;5067307;28;20024;-58
2023/05/23 05:07:17;;;;;;;0.30;0.30;;;;;;;15.10;47.48;100283.91;5067101;28;20093;-58
2023/05/23 05:09:43;;;;;;;0.50;0.50;;;;;;;15.08;47.45;100265.66;5066802;28;20033;-60
2023/05/23 05:12:08;;;;;;;0.30;0.30;;;;;;;15.14;47.20;100271.63;5066685;28;20025;-59
2023/05/23 05:14:33;;;;;;;0.30;0.30;;;;;;;15.16;47.25;100270.66;5066445;28;20024;-58
2023/05/23 05:17:01;;;;;;;0.30;0.30;;;;;;;15.25;47.17;100269.53;5066926;28;20044;-59
2023/05/23 05:19:27;;;;;;;0.30;0.30;;;;;;;15.32;46.86;100281.53;5066789;28;20088;-59
2023/05/23 05:21:52;;;;;;;0.57;0.57;;;;;;;15.36;46.64;100282.28;5066878;28;20106;-60
2023/05/23 05:24:19;;;;;;;0.30;0.30;;;;;;;15.31;46.62;100282.44;5066756;28;20033;-60
2023/05/23 05:26:46;;;;;;;0.50;0.50;;;;;;;15.30;46.71;100274.63;5066844;28;20016;-60
2023/05/23 05:29:12;;;;;;;0.30;0.30;;;;;;;15.33;46.67;100272.78;5066686;28;20074;-60
2023/05/23 05:31:37;;;;;;;0.30;0.30;;;;;;;15.31;46.59;100279.81;5066364;28;20036;-59
2023/05/23 05:34:02;;;;;;;2.50;1.35;;;;;;;15.37;46.63;100284.00;5066680;28;20024;-61
2023/05/23 05:36:28;;;;;;;1.13;0.88;;;;;;;15.36;46.53;100291.00;5048282;28;20029;-59
2023/05/23 05:38:53;;;;;;;0.30;0.30;;;;;;;15.23;46.86;100285.28;5066220;28;20025;-58
2023/05/23 05:41:19;;;;;;;0.30;0.30;;;;;;;15.23;47.13;100294.88;5066187;28;20051;-59
2023/05/23 05:43:44;;;;;;;2.75;1.58;;;;;;;15.16;47.29;100275.88;5066576;28;20083;-57
2023/05/23 05:46:10;;;;;;;0.30;0.30;;;;;;;15.18;47.33;100279.31;5066083;28;20032;-58
2023/05/23 05:48:35;;;;;;;0.20;0.20;;;;;;;15.27;47.28;100290.41;5065951;28;20049;-58
2023/05/23 05:51:02;;;;;;;0.30;0.30;;;;;;;15.30;47.62;100283.34;5066005;28;20025;-58
2023/05/23 05:53:27;;;;;;;0.30;0.30;;;;;;;15.40;47.05;100268.22;5066224;28;20104;-59
2023/05/23 05:55:53;;;;;;;0.20;0.20;;;;;;;15.44;47.12;100268.97;5066063;28;20424;-56
2023/05/23 05:58:19;;;;;;;0.30;0.30;;;;;;;15.54;46.63;100274.78;5066144;28;20048;-59
2023/05/23 06:00:44;;;;;;;0.30;0.30;;;;;;;15.49;46.60;100267.91;5065945;28;20036;-57
2023/05/23 06:03:10;;;;;;;0.30;0.30;;;;;;;15.50;46.50;100268.78;5066049;28;20033;-59
2023/05/23 06:05:36;;;;;;;0.30;0.30;;;;;;;15.43;46.34;100281.19;5066002;28;20035;-60
2023/05/23 06:08:02;;;;;;;0.20;0.20;;;;;;;15.31;46.49;100277.19;5066019;28;20104;-59
2023/05/23 06:10:28;;;;;;;0.30;0.30;;;;;;;15.31;46.56;100260.66;5065943;28;20358;-58
2023/05/23 06:12:53;;;;;;;0.40;0.40;;;;;;;15.35;46.42;100276.19;5065745;28;20468;-59
2023/05/23 06:15:19;;;;;;;0.30;0.30;;;;;;;15.28;46.50;100266.84;5065542;28;20035;-59
2023/05/23 06:17:44;;;;;;;0.40;0.40;;;;;;;15.12;46.93;100253.38;5065884;28;20040;-59
2023/05/23 06:20:10;;;;;;;0.20;0.20;;;;;;;15.19;46.78;100264.50;5065577;28;20028;-60
2023/05/23 06:22:36;;;;;;;0.30;0.30;;;;;;;15.26;46.88;100259.91;5065710;28;20024;-59
2023/05/23 06:25:02;;;;;;;0.30;0.30;;;;;;;15.31;46.83;100261.50;5065666;28;20021;-60
2023/05/23 06:27:27;;;;;;;0.50;0.50;;;;;;;15.40;46.49;100252.50;5065582;28;20159;-60
2023/05/23 06:29:52;;;;;;;0.20;0.20;;;;;;;15.47;46.49;100246.19;5065345;28;20218;-58
2023/05/23 06:32:18;;;;;;;0.30;0.30;;;;;;;15.57;46.21;100261.59;5065590;28;20053;-59
2023/05/23 06:34:43;;;;;;;0.30;0.30;;;;;;;15.56;46.05;100245.03;5065118;28;20017;-59
2023/05/23 06:37:09;;;;;;;0.30;0.30;;;;;;;15.58;46.12;100235.38;5063986;28;20401;-60
2023/05/23 06:39:34;;;;;;;0.30;0.30;;;;;;;15.58;46.26;100239.75;5064394;28;20023;-56
2023/05/23 06:42:00;;;;;;;0.30;0.30;;;;;;;15.61;46.12;100251.00;5065117;28;20025;-58
2023/05/23 06:44:25;;;;;;;0.20;0.20;;;;;;;15.66;46.01;100239.50;5065370;28;20028;-59
2023/05/23 06:46:56;;;;;;;0.30;0.30;;;;;;;15.78;46.23;100226.03;5065205;28;20021;-59
2023/05/23 06:49:22;;;;;;;0.30;0.30;;;;;;;15.89;45.68;100243.13;5064826;28;20121;-58
2023/05/23 06:51:48;;;;;;;0.30;0.30;;;;;;;15.90;45.38;100224.75;5065252;28;20032;-60
2023/05/23 06:54:13;;;;;;;0.60;0.60;;;;;;;15.95;45.55;100191.44;5065186;28;20052;-59
2023/05/23 06:56:39;;;;;;;0.32;0.32;;;;;;;15.92;45.29;100211.63;5064982;28;20025;-59
2023/05/23 06:59:04;;;;;;;0.30;0.30;;;;;;;16.02;44.85;100241.88;5064679;28;20025;-59
2023/05/23 07:01:30;;;;;;;0.30;0.30;;;;;;;15.94;44.16;100255.16;5064459;28;20532;-61
2023/05/23 07:03:55;;;;;;;0.30;0.30;;;;;;;15.83;44.83;100245.03;5065016;28;20027;-60
2023/05/23 07:06:20;;;;;;;0.20;0.20;;;;;;;15.83;44.90;100260.75;5065070;28;20021;-59
2023/05/23 07:08:46;;;;;;;0.30;0.30;;;;;;;15.85;45.31;100264.19;5065030;28;20048;-60
2023/05/23 07:11:11;;;;;;;2.67;1.38;;;;;;;15.89;45.12;100248.38;5064745;28;20025;-59
2023/05/23 07:13:37;;;;;;;0.30;0.30;;;;;;;16.02;45.01;100256.72;5064835;28;20353;-58
2023/05/23 07:16:02;;;;;;;0.30;0.30;;;;;;;16.13;45.01;100266.81;5064539;28;20056;-59
2023/05/23 07:18:27;;;;;;;6.63;3.30;;;;;;;16.18;44.93;100255.25;5064673;28;20115;-59
2023/05/23 07:20:53;;;;;;;0.30;0.30;;;;;;;16.17;44.79;100237.84;5064630;28;20068;-58
2023/05/23 07:23:18;;;;;;;0.73;0.73;;;;;;;16.19;44.82;100241.28;5046603;28;20100;-60
2023/05/23 07:25:45;;;;;;;0.30;0.30;;;;;;;16.16;44.82;100243.13;5064759;28;20029;-58
2023/05/23 07:28:11;;;;;;;0.30;0.30;;;;;;;16.08;44.92;100246.88;5063545;28;20381;-58
2023/05/23 07:30:36;;;;;;;0.32;0.32;;;;;;;16.20;45.07;100231.63;5063398;28;20076;-59
2023/05/23 07:33:02;;;;;;;0.20;0.20;;;;;;;16.34;44.90;100244.28;5064372;28;20029;-59
2023/05/23 07:35:27;;;;;;;0.20;0.20;;;;;;;16.41;43.98;100237.03;5064372;28;20035;-57
2023/05/23 07:37:54;;;;;;;1.05;0.95;;;;;;;16.32;44.23;100215.50;5064302;28;20108;-60
2023/05/23 07:40:20;;;;;;;0.20;0.20;;;;;;;16.40;44.73;100225.72;5064501;28;20020;-59
2023/05/23 07:42:46;;;;;;;0.20;0.20;;;;;;;16.44;44.26;100242.16;5064081;28;20107;-59
2023/05/23 07:45:11;;;;;;;0.30;0.30;;;;;;;16.39;44.45;100247.56;5064169;28;20036;-59
2023/05/23 07:47:37;;;;;;;0.43;0.43;;;;;;;16.42;44.56;100247.44;5064335;28;20100;-59
2023/05/23 07:50:03;;;;;;;0.20;0.20;;;;;;;16.53;44.70;100261.94;5064023;28;20045;-59
2023/05/23 07:52:30;;;;;;;0.20;0.20;;;;;;;16.69;44.70;100276.19;5064234;28;20024;-59
2023/05/23 07:54:55;;;;;;;0.20;0.20;;;;;;;16.80;44.67;100260.09;5064293;28;20033;-59
2023/05/23 07:57:21;;;;;;;0.20;0.20;;;;;;;16.98;44.35;100258.53;5064085;28;20195;-59
2023/05/23 07:59:46;;;;;;;0.30;0.30;;;;;;;17.04;44.27;100252.22;5063626;28;20043;-60
2023/05/23 08:02:11;;;;;;;0.30;0.30;;;;;;;17.12;44.41;100259.84;5063966;28;20025;-59
2023/05/23 08:04:39;;;;;;;0.40;0.40;;;;;;;17.25;44.36;100260.22;5063743;28;20044;-59
2023/05/23 08:07:04;;;;;;;0.20;0.20;;;;;;;17.44;43.89;100265.56;5063892;28;20024;-61
2023/05/23 08:09:30;;;;;;;0.52;0.50;;;;;;;17.48;43.56;100240.06;5046119;28;20108;-59
2023/05/23 08:11:55;;;;;;;0.75;0.75;;;;;;;17.65;43.09;100257.75;5046812;28;20155;-57
2023/05/23 08:14:21;;;;;;;0.30;0.30;;;;;;;17.74;43.11;100253.91;5067995;28;20089;-59
2023/05/23 08:16:46;;;;;;;0.20;0.20;;;;;;;17.77;42.88;100259.03;5068082;28;20063;-60
2023/05/23 08:19:12;;;;;;;0.20;0.20;;;;;;;17.86;43.07;100257.78;5068097;28;20021;-57
2023/05/23 08:21:37;;;;;;;0.30;0.30;;;;;;;17.91;43.20;100244.47;5068009;28;20032;-59
2023/05/23 08:24:03;;;;;;;0.22;0.22;;;;;;;17.93;43.00;100250.53;5067982;28;20036;-60
2023/05/23 08:26:33;;;;;;;0.20;0.20;;;;;;;17.98;43.08;100253.81;5067984;28;20029;-60
2023/05/23 08:29:02;;;;;;;0.20;0.20;;;;;;;18.00;42.36;100252.00;5068161;28;20025;-58
2023/05/23 08:31:29;;;;;;;0.30;0.30;;;;;;;17.93;42.21;100235.63;5067663;28;20029;-59
2023/05/23 08:33:54;;;;;;;0.20;0.20;;;;;;;18.05;41.27;100242.13;5067707;28;20057;-60
2023/05/23 08:36:19;;;;;;;1.38;0.80;;;;;;;18.14;41.20;100248.78;5067848;28;20047;-60
2023/05/23 08:38:45;;;;;;;0.30;0.30;;;;;;;18.23;41.04;100239.66;5068011;28;20025;-59
2023/05/23 08:41:20;;;;;;;0.28;0.28;;;;;;;18.50;41.07;100244.63;5067575;28;20017;-60
2023/05/23 08:43:46;;;;;;;0.20;0.20;;;;;;;18.62;41.32;100239.75;5067709;28;20025;-58
2023/05/23 08:46:12;;;;;;;0.20;0.20;;;;;;;18.79;41.35;100233.69;5067483;28;20097;-59
2023/05/23 08:48:38;;;;;;;0.20;0.20;;;;;;;18.82;41.28;100217.78;5067431;28;20053;-60
2023/05/23 08:51:05;;;;;;;0.20;0.20;;;;;;;19.02;40.69;100253.72;5067291;28;20021;-59
2023/05/23 08:53:32;;;;;;;0.20;0.20;;;;;;;19.14;40.56;100246.16;5067488;28;20035;-59
2023/05/23 08:56:02;;;;;;;0.20;0.20;;;;;;;19.29;40.57;100245.47;5067466;28;20084;-59
2023/05/23 08:58:30;;;;;;;0.20;0.20;;;;;;;19.25;39.72;100240.44;5067368;28;20055;-59
2023/05/23 09:00:58;;;;;;;0.47;0.47;;;;;;;19.29;39.18;100250.72;5067338;28;20020;-59
2023/05/23 09:03:26;;;;;;;0.30;0.30;;;;;;;19.38;39.58;100243.28;5067359;28;20028;-58
2023/05/23 09:05:53;;;;;;;1.00;0.90;;;;;;;19.33;39.33;100246.16;5067215;28;20048;-58
2023/05/23 09:08:19;;;;;;;0.20;0.20;;;;;;;19.29;38.73;100245.47;5067172;28;20021;-59
2023/05/23 09:10:48;;;;;;;0.30;0.30;;;;;;;19.39;39.27;100239.75;5067275;28;20032;-60
2023/05/23 09:13:14;;;;;;;0.20;0.20;;;;;;;19.47;39.06;100239.38;5067118;28;20050;-59
2023/05/23 09:15:56;;;;;;;0.20;0.20;;;;;;;19.72;39.28;100239.03;5067003;28;20025;-57
2023/05/23 09:18:24;;;;;;;0.20;0.20;;;;;;;19.88;39.35;100235.63;5067280;28;20028;-60
2023/05/23 09:20:50;;;;;;;0.20;0.20;;;;;;;19.96;38.91;100230.81;5066939;28;20132;-57
2023/05/23 09:23:15;;;;;;;0.20;0.20;;;;;;;20.19;38.97;100228.84;5066418;28;20064;-59
2023/05/23 09:25:47;;;;;;;0.20;0.20;;;;;;;20.44;38.98;100224.91;5066957;28;20021;-59
2023/05/23 09:28:13;;;;;;;;;;;;;;;20.64;37.72;100233.53;5067314;28;20051;-60
2023/05/23 09:30:38;;;;;;;0.20;0.20;;;;;;;20.76;37.64;100238.16;5066600;28;19917;-59
2023/05/23 09:33:04;;;;;;;0.30;0.30;;;;;;;21.02;37.54;100235.88;5058307;23;20046;-68
2023/05/23 09:35:29;;;;;;;0.20;0.20;;;;;;;21.13;37.63;100226.53;5025464;28;20014;-67
2023/05/23 09:38:00;;;;;;;0.50;0.50;;;;;;;21.16;37.18;100234.28;5059352;23;20111;-61
2023/05/23 09:40:33;;;;;;;0.20;0.20;;;;;;;21.02;37.19;100230.59;5065442;28;20021;-59
2023/05/23 09:43:03;;;;;;;0.20;0.20;;;;;;;21.08;37.60;100229.44;5066482;28;20025;-59
2023/05/23 09:45:32;;;;;;;0.20;0.20;;;;;;;20.98;37.25;100237.00;5066182;28;20030;-59
2023/05/23 09:47:57;;;;;;;0.20;0.20;;;;;;;20.93;37.23;100233.75;5066220;28;20041;-59
2023/05/23 09:50:32;;;;;;;0.20;0.20;;;;;;;20.86;36.75;100235.00;5066215;28;20023;-59
2023/05/23 09:52:57;;;;;;;0.20;0.20;;;;;;;20.85;37.51;100236.78;5066544;28;20140;-59
2023/05/23 09:55:23;;;;;;;0.20;0.20;;;;;;;20.72;36.57;100235.75;5066195;28;20043;-59
2023/05/23 09:57:53;;;;;;;0.77;0.77;;;;;;;20.56;36.77;100237.41;5066168;28;20275;-59
2023/05/23 10:00:19;;;;;;;0.55;0.55;;;;;;;20.44;36.94;100238.06;5066196;28;20021;-60
2023/05/23 10:03:11;;;;;;;0.20;0.20;;;;;;;20.43;36.75;100246.94;5073624;23;20053;-63
2023/05/23 10:05:47;;;;;;;0.30;0.30;;;;;;;20.28;37.39;100248.56;5041772;28;20057;-64
2023/05/23 10:08:21;;;;;;;0.20;0.20;;;;;;;20.16;37.04;100244.81;5044910;28;20029;-64
2023/05/23 10:10:55;;;;;;;0.20;0.20;;;;;;;19.99;37.59;100248.25;5045976;28;20347;-64
2023/05/23 10:13:26;;;;;;;0.20;0.20;;;;;;;19.78;37.88;100243.13;5045594;28;20210;-64
2023/05/23 10:16:05;;;;;;;0.30;0.30;;;;;;;19.66;38.45;100227.03;5045743;28;20084;-64
2023/05/23 10:18:38;;;;;;;0.20;0.20;;;;;;;19.71;38.39;100239.09;5028051;28;20033;-65
2023/05/23 10:21:11;;;;;;;0.20;0.20;;;;;;;19.63;38.80;100239.50;5045860;28;20030;-65
2023/05/23 10:23:37;;;;;;;0.20;0.20;;;;;;;19.59;38.64;100248.44;5045622;28;20025;-64
2023/05/23 10:26:03;;;;;;;0.20;0.20;;;;;;;19.27;39.30;100255.19;5045865;28;20458;-65
2023/05/23 10:28:32;;;;;;;0.52;0.52;;;;;;;19.01;40.13;100244.09;5045751;28;20029;-65
2023/05/23 10:30:58;;;;;;;0.20;0.20;;;;;;;18.77;40.88;100243.47;5045277;28;20093;-64
2023/05/23 10:33:31;;;;;;;0.20;0.20;;;;;;;18.55;41.38;100247.91;5065545;22;20364;-60
2023/05/23 10:36:08;;;;;;;0.20;0.20;;;;;;;18.30;41.51;100254.25;5063818;28;20016;-61
2023/05/23 10:38:41;;;;;;;0.20;0.20;;;;;;;18.04;42.82;100265.81;5064931;28;20051;-60
2023/05/23 10:41:15;;;;;;;0.52;0.52;;;;;;;17.68;44.06;100262.03;5072740;22;20013;-67
2023/05/23 10:43:54;;;;;;;0.20;0.20;;;;;;;17.37;45.91;100269.38;5043871;28;20087;-66
2023/05/23 10:46:22;;;;;;;0.20;0.20;;;;;;;16.96;46.99;100273.47;5044677;28;20045;-67
2023/05/23 10:48:56;;;;;;;0.20;0.20;;;;;;;16.72;47.62;100270.84;5045271;28;20036;-68
2023/05/23 10:51:21;;;;;;;0.28;0.28;;;;;;;16.54;47.02;100269.75;5045010;28;20045;-67
2023/05/23 10:53:53;;;;;;;0.30;0.30;;;;;;;16.39;47.45;100272.94;5044972;28;20056;-67
2023/05/23 10:56:22;;;;;;;0.30;0.30;;;;;;;16.31;46.28;100267.97;5045053;28;20026;-68
2023/05/23 10:58:56;;;;;;;0.20;0.20;;;;;;;16.23;46.74;100260.34;5045136;28;20033;-65
2023/05/23 11:01:22;;;;;;;0.20;0.20;;;;;;;16.13;45.83;100251.97;5044697;28;20033;-66
2023/05/23 11:03:52;;;;;;;0.22;0.22;;;;;;;15.95;46.77;100253.41;5044808;28;20029;-66
2023/05/23 11:06:42;;;;;;;0.20;0.20;;;;;;;15.64;50.23;100257.88;5044887;28;20166;-66
2023/05/23 11:09:11;;;;;;;0.30;0.30;;;;;;;15.33;51.09;100249.25;5045003;28;20510;-67
2023/05/23 11:11:52;;;;;;;0.20;0.20;;;;;;;15.04;53.87;100244.88;5045153;28;20364;-67
2023/05/23 11:14:38;;;;;;;0.30;0.30;;;;;;;14.84;53.63;100248.97;5044618;28;20038;-66
2023/05/23 11:17:12;;;;;;;0.50;0.50;;;;;;;14.71;58.15;100259.69;5033567;28;20034;-66
2023/05/23 11:19:38;;;;;;;0.30;0.30;;;;;;;14.66;56.62;100248.56;5044642;28;20037;-66
2023/05/23 11:22:08;;;;;;;0.30;0.30;;;;;;;14.74;58.01;100258.78;5044590;28;20030;-66
2023/05/23 11:24:54;;;;;;;0.30;0.30;;;;;;;14.81;60.68;100262.94;5027186;28;20053;-66